| time (UTC) | temp F | wind direction | speed knots | gust knots | rain 1hr in | rain 24hr in | rain mn in | humidity % | barometer mb |
| 20260510043353 | 48 | 215 | 2.6 | 6.1 | 0.00 | 0.00 | 0.00 | 99 | 1009.7 |
| 20260510042851 | 48 | 186 | 1.7 | 5.2 | 0.00 | 0.00 | 0.00 | 99 | 1009.7 |
| 20260510042346 | 48 | 189 | 2.6 | 4.3 | 0.00 | 0.00 | 0.00 | 99 | 1009.5 |
| 20260510041843 | 48 | 212 | 2.6 | 2.6 | 0.00 | 0.00 | 0.00 | 99 | 1009.4 |
| 20260510041340 | 48 | 224 | 1.7 | 2.6 | 0.00 | 0.00 | 0.00 | 99 | 1009.6 |
| 20260510040838 | 48 | 227 | 0.9 | 1.7 | 0.00 | 0.00 | 0.00 | 99 | 1009.6 |
| 20260510040334 | 48 | 222 | 0.9 | 2.6 | 0.00 | 0.00 | 0.00 | 99 | 1009.7 |
| 20260510035830 | 48 | 226 | 1.7 | 4.3 | 0.00 | 0.42 | 0.42 | 99 | 1009.8 |
| 20260510035326 | 48 | 242 | 2.6 | 5.2 | 0.00 | 0.42 | 0.42 | 99 | 1009.8 |
| 20260510034822 | 48 | 222 | 1.7 | 5.2 | 0.00 | 0.42 | 0.42 | 99 | 1009.6 |
| 20260510034320 | 48 | 203 | 2.6 | 5.2 | 0.00 | 0.42 | 0.42 | 99 | 1009.8 |
| 20260510033816 | 48 | 225 | 0.9 | 6.1 | 0.00 | 0.42 | 0.42 | 99 | 1009.7 |
| 20260510033313 | 48 | 221 | 2.6 | 6.1 | 0.00 | 0.42 | 0.42 | 99 | 1009.8 |
| 20260510032809 | 48 | 211 | 4.3 | 7.8 | 0.00 | 0.42 | 0.42 | 99 | 1009.6 |
| 20260510032306 | 48 | 204 | 2.6 | 6.1 | 0.00 | 0.42 | 0.42 | 99 | 1009.4 |
| 20260510031802 | 47 | 189 | 1.7 | 5.2 | 0.00 | 0.42 | 0.42 | 99 | 1009.6 |
| 20260510031257 | 47 | 244 | 5.2 | 8.7 | 0.00 | 0.42 | 0.42 | 99 | 1009.3 |
| 20260510030751 | 47 | 240 | 2.6 | 4.3 | 0.00 | 0.42 | 0.42 | 99 | 1009.4 |
| 20260510030248 | 47 | 242 | 2.6 | 5.2 | 0.00 | 0.42 | 0.42 | 99 | 1009.6 |
| 20260510025745 | 47 | 238 | 1.7 | 5.2 | 0.00 | 0.42 | 0.42 | 99 | 1009.4 |
| 20260510025243 | 47 | 255 | 3.5 | 6.1 | 0.00 | 0.42 | 0.42 | 99 | 1009.6 |
| 20260510024740 | 47 | 241 | 1.7 | 5.2 | 0.00 | 0.42 | 0.42 | 99 | 1009.4 |
| 20260510024236 | 47 | 162 | 2.6 | 4.3 | 0.00 | 0.42 | 0.42 | 99 | 1009.6 |
| 20260510023731 | 47 | 230 | 0.9 | 4.3 | 0.00 | 0.42 | 0.42 | 99 | 1009.4 |
| 20260510023224 | 47 | 238 | 0.0 | 2.6 | 0.00 | 0.42 | 0.42 | 99 | 1009.3 |
| 20260510022720 | 47 | 302 | 0.0 | 1.7 | 0.00 | 0.42 | 0.42 | 99 | 1009.3 |
| 20260510022219 | 48 | 199 | 3.5 | 4.3 | 0.00 | 0.42 | 0.42 | 99 | 1009.1 |
| 20260510021715 | 48 | 177 | 2.6 | 2.6 | 0.00 | 0.42 | 0.42 | 99 | 1009.2 |
| 20260510021213 | 48 | 257 | 0.9 | 2.6 | 0.00 | 0.42 | 0.42 | 99 | 1009.4 |
| 20260510020707 | 48 | 217 | 1.7 | 2.6 | 0.00 | 0.42 | 0.42 | 99 | 1009.2 |
| 20260510020202 | 48 | 206 | 4.3 | 5.2 | 0.00 | 0.42 | 0.42 | 99 | 1009.5 |
| 20260510015658 | 48 | 217 | 4.3 | 5.2 | 0.00 | 0.42 | 0.42 | 99 | 1009.6 |
| 20260510015155 | 48 | 233 | 0.9 | 2.6 | 0.00 | 0.42 | 0.42 | 99 | 1009.4 |
| 20260510014650 | 48 | 210 | 2.6 | 4.3 | 0.00 | 0.42 | 0.42 | 99 | 1009.2 |
| 20260510014148 | 48 | 216 | 2.6 | 5.2 | 0.00 | 0.42 | 0.42 | 99 | 1009.3 |
| 20260510013643 | 48 | 245 | 1.7 | 5.2 | 0.00 | 0.42 | 0.42 | 99 | 1009.3 |
| 20260510013139 | 48 | 231 | 1.7 | 4.3 | 0.00 | 0.42 | 0.42 | 99 | 1009.1 |
| 20260510012638 | 48 | 252 | 2.6 | 2.6 | 0.00 | 0.42 | 0.42 | 99 | 1009.1 |
| 20260510012134 | 48 | 240 | 0.9 | 2.6 | 0.00 | 0.42 | 0.42 | 99 | 1009.4 |
| 20260510011629 | 48 | 231 | 1.7 | 1.7 | 0.00 | 0.42 | 0.42 | 99 | 1009.4 |
| 20260510011125 | 48 | 238 | 2.6 | 2.6 | 0.00 | 0.42 | 0.42 | 99 | 1009.1 |
| 20260510010621 | 48 | 179 | 0.9 | 4.3 | 0.00 | 0.42 | 0.42 | 99 | 1008.8 |
| 20260510010119 | 48 | 227 | 0.9 | 1.7 | 0.00 | 0.42 | 0.42 | 99 | 1009.0 |
| 20260510005614 | 48 | 231 | 0.0 | 2.6 | 0.00 | 0.42 | 0.42 | 99 | 1009.0 |
| 20260510005111 | 48 | 188 | 0.9 | 1.7 | 0.00 | 0.42 | 0.42 | 99 | 1008.7 |
| 20260510004609 | 48 | 235 | 0.0 | 0.9 | 0.00 | 0.42 | 0.42 | 99 | 1008.7 |
| 20260510004107 | 49 | 210 | 0.0 | 1.7 | 0.00 | 0.42 | 0.42 | 99 | 1009.0 |
| 20260510003604 | 49 | 173 | 0.0 | 4.3 | 0.00 | 0.42 | 0.42 | 99 | 1009.0 |
| 20260510003059 | 49 | 222 | 2.6 | 4.3 | 0.00 | 0.42 | 0.42 | 99 | 1009.0 |
| 20260510002554 | 49 | 236 | 1.7 | 2.6 | 0.00 | 0.42 | 0.42 | 99 | 1008.8 |
| 20260510002051 | 49 | 236 | 2.6 | 6.1 | 0.00 | 0.42 | 0.42 | 99 | 1009.0 |
| 20260510001549 | 49 | 235 | 1.7 | 2.6 | 0.00 | 0.42 | 0.42 | 99 | 1008.5 |
| 20260510001048 | 49 | 249 | 2.6 | 4.3 | 0.00 | 0.42 | 0.42 | 99 | 1008.5 |
| 20260510000542 | 49 | 214 | 0.9 | 1.7 | 0.00 | 0.42 | 0.42 | 99 | 1008.5 |
| 20260510000039 | 49 | 223 | 1.7 | 2.6 | 0.00 | 0.42 | 0.42 | 99 | 1008.8 |
| 20260509235536 | 49 | 235 | 3.5 | 7.0 | 0.00 | 0.42 | 0.42 | 99 | 1008.3 |
| 20260509235033 | 49 | 205 | 1.7 | 2.6 | 0.00 | 0.42 | 0.42 | 99 | 1008.6 |
| 20260509234529 | 49 | 244 | 0.9 | 4.3 | 0.00 | 0.42 | 0.42 | 99 | 1008.4 |
| 20260509234027 | 49 | 251 | 1.7 | 4.3 | 0.00 | 0.42 | 0.42 | 99 | 1008.2 |
| 20260509233524 | 49 | 232 | 2.6 | 6.1 | 0.00 | 0.42 | 0.42 | 99 | 1008.3 |
| 20260509233021 | 49 | 202 | 2.6 | 2.6 | 0.00 | 0.42 | 0.42 | 99 | 1008.4 |
| 20260509232518 | 49 | 254 | 0.9 | 1.7 | 0.00 | 0.42 | 0.42 | 99 | 1008.2 |
| 20260509232014 | 49 | 253 | 2.6 | 2.6 | 0.00 | 0.42 | 0.42 | 99 | 1008.2 |
| 20260509231511 | 49 | 254 | 0.9 | 4.3 | 0.00 | 0.42 | 0.42 | 99 | 1008.2 |
| 20260509231009 | 49 | 253 | 0.9 | 4.3 | 0.00 | 0.42 | 0.42 | 99 | 1008.3 |
| 20260509230505 | 50 | 202 | 1.7 | 4.3 | 0.00 | 0.42 | 0.42 | 99 | 1008.3 |
| 20260509230002 | 50 | 235 | 2.6 | 2.6 | 0.00 | 0.42 | 0.42 | 99 | 1008.0 |
| 20260509225458 | 50 | 243 | 1.7 | 1.7 | 0.00 | 0.42 | 0.42 | 99 | 1007.8 |
| 20260509224953 | 50 | 211 | 2.6 | 6.1 | 0.00 | 0.42 | 0.42 | 99 | 1008.2 |
| 20260509224449 | 50 | 250 | 4.3 | 5.2 | 0.00 | 0.42 | 0.42 | 99 | 1008.1 |
| 20260509223946 | 50 | 243 | 1.7 | 4.3 | 0.00 | 0.42 | 0.42 | 99 | 1007.9 |
| 20260509223443 | 50 | 255 | 0.9 | 4.3 | 0.00 | 0.42 | 0.42 | 99 | 1008.2 |
| 20260509222940 | 50 | 274 | 2.6 | 4.3 | 0.00 | 0.42 | 0.42 | 99 | 1007.8 |
| 20260509222435 | 50 | 225 | 1.7 | 4.3 | 0.00 | 0.42 | 0.42 | 99 | 1008.1 |
| 20260509221931 | 50 | 212 | 0.9 | 6.1 | 0.00 | 0.42 | 0.42 | 99 | 1008.1 |
| 20260509221429 | 50 | 304 | 3.5 | 7.0 | 0.00 | 0.42 | 0.42 | 99 | 1008.2 |
| 20260509220924 | 50 | 229 | 3.5 | 5.2 | 0.00 | 0.42 | 0.42 | 99 | 1008.2 |
| 20260509220420 | 49 | 225 | 5.2 | 7.0 | 0.00 | 0.42 | 0.42 | 99 | 1008.1 |
| 20260509215917 | 49 | 248 | 3.5 | 5.2 | 0.00 | 0.42 | 0.42 | 99 | 1008.1 |
| 20260509215412 | 49 | 163 | 5.2 | 7.8 | 0.00 | 0.42 | 0.42 | 99 | 1008.2 |
| 20260509214910 | 49 | 240 | 2.6 | 6.1 | 0.00 | 0.42 | 0.42 | 99 | 1008.2 |
| 20260509214407 | 50 | 238 | 2.6 | 5.2 | 0.00 | 0.42 | 0.42 | 99 | 1008.3 |
| 20260509213904 | 49 | 214 | 4.3 | 11.3 | 0.00 | 0.42 | 0.42 | 99 | 1008.3 |
| 20260509213359 | 49 | 201 | 1.7 | 7.8 | 0.00 | 0.42 | 0.42 | 99 | 1008.3 |
| 20260509212857 | 49 | 248 | 3.5 | 7.8 | 0.00 | 0.42 | 0.42 | 99 | 1008.5 |
| 20260509212354 | 49 | 182 | 1.7 | 4.3 | 0.00 | 0.42 | 0.42 | 99 | 1008.4 |
| 20260509211850 | 49 | 262 | 0.9 | 2.6 | 0.00 | 0.42 | 0.42 | 99 | 1008.3 |
| 20260509211346 | 49 | 254 | 3.5 | 7.0 | 0.00 | 0.42 | 0.42 | 99 | 1008.3 |
| 20260509210843 | 49 | 229 | 3.5 | 5.2 | 0.00 | 0.42 | 0.42 | 99 | 1008.5 |
| 20260509210341 | 49 | 205 | 1.7 | 5.2 | 0.00 | 0.42 | 0.42 | 99 | 1008.6 |
| 20260509205840 | 49 | 240 | 1.7 | 4.3 | 0.00 | 0.42 | 0.42 | 99 | 1008.7 |
| 20260509205335 | 49 | 207 | 2.6 | 7.0 | 0.00 | 0.42 | 0.42 | 99 | 1008.7 |
| 20260509204832 | 49 | 227 | 4.3 | 6.1 | 0.00 | 0.42 | 0.42 | 99 | 1008.5 |
| 20260509204328 | 49 | 250 | 2.6 | 5.2 | 0.00 | 0.42 | 0.42 | 99 | 1008.6 |
| 20260509203824 | 49 | 251 | 3.5 | 7.0 | 0.00 | 0.42 | 0.42 | 99 | 1008.4 |
| 20260509203321 | 50 | 259 | 2.6 | 6.1 | 0.00 | 0.42 | 0.42 | 99 | 1008.4 |
| 20260509202817 | 50 | 252 | 4.3 | 6.1 | 0.00 | 0.42 | 0.42 | 99 | 1008.6 |
| 20260509202314 | 49 | 243 | 3.5 | 5.2 | 0.00 | 0.42 | 0.42 | 99 | 1008.8 |
| 20260509201813 | 49 | 214 | 6.1 | 7.8 | 0.00 | 0.42 | 0.42 | 99 | 1008.6 |
| 20260509201310 | 49 | 232 | 4.3 | 5.2 | 0.00 | 0.42 | 0.42 | 99 | 1008.6 |
| 20260509200806 | 49 | 214 | 3.5 | 7.8 | 0.00 | 0.42 | 0.42 | 99 | 1009.0 |
| 20260509200302 | 48 | 242 | 3.5 | 7.0 | 0.00 | 0.42 | 0.42 | 99 | 1008.8 |
| 20260509195758 | 48 | 219 | 3.5 | 6.1 | 0.00 | 0.42 | 0.42 | 99 | 1009.1 |
| 20260509195254 | 48 | 205 | 2.6 | 6.1 | 0.00 | 0.42 | 0.42 | 99 | 1009.1 |
| 20260509194748 | 48 | 201 | 2.6 | 8.7 | 0.00 | 0.42 | 0.42 | 99 | 1009.1 |
| 20260509194244 | 48 | 229 | 2.6 | 5.2 | 0.00 | 0.42 | 0.42 | 99 | 1009.3 |
| 20260509193741 | 48 | 226 | 3.5 | 6.1 | 0.00 | 0.42 | 0.42 | 99 | 1009.3 |
| 20260509193241 | 48 | 244 | 0.9 | 4.3 | 0.00 | 0.42 | 0.42 | 99 | 1009.2 |
| 20260509192737 | 48 | 203 | 0.0 | 4.3 | 0.00 | 0.42 | 0.42 | 99 | 1009.1 |
| 20260509192232 | 48 | 227 | 1.7 | 4.3 | 0.00 | 0.42 | 0.42 | 99 | 1009.2 |
| 20260509191728 | 48 | 192 | 3.5 | 4.3 | 0.00 | 0.42 | 0.42 | 99 | 1009.3 |
| 20260509191225 | 48 | 214 | 3.5 | 6.1 | 0.00 | 0.42 | 0.42 | 99 | 1009.1 |
| 20260509190721 | 48 | 196 | 2.6 | 5.2 | 0.00 | 0.42 | 0.42 | 99 | 1009.2 |
| 20260509190218 | 48 | 241 | 1.7 | 6.1 | 0.00 | 0.42 | 0.42 | 99 | 1009.4 |
| 20260509185716 | 48 | 257 | 1.7 | 7.0 | 0.00 | 0.42 | 0.42 | 99 | 1009.3 |
| 20260509185212 | 48 | 235 | 0.9 | 6.1 | 0.00 | 0.42 | 0.42 | 99 | 1009.3 |
| 20260509184709 | 48 | 210 | 2.6 | 4.3 | 0.07 | 0.42 | 0.42 | 99 | 1009.5 |
| 20260509184207 | 48 | 22 | 3.5 | 5.2 | 0.07 | 0.42 | 0.42 | 99 | 1009.3 |
| 20260509183703 | 48 | 249 | 1.7 | 2.6 | 0.00 | 0.41 | 0.41 | 99 | 1009.3 |
| 20260509183158 | 48 | 112 | 4.3 | 5.2 | 0.00 | 0.41 | 0.41 | 99 | 1009.3 |
| 20260509182654 | 47 | 237 | 2.6 | 4.3 | 0.00 | 0.41 | 0.41 | 99 | 1009.4 |
| 20260509182151 | 47 | 190 | 3.5 | 4.3 | 0.00 | 0.41 | 0.41 | 99 | 1009.4 |
| 20260509181649 | 47 | 193 | 4.3 | 6.1 | 0.07 | 0.41 | 0.41 | 99 | 1009.3 |
| 20260509181147 | 47 | 222 | 1.7 | 2.6 | 0.07 | 0.41 | 0.41 | 99 | 1009.3 |
| 20260509180643 | 47 | 240 | 0.0 | 5.2 | 0.00 | 0.40 | 0.40 | 99 | 1009.3 |
| 20260509180139 | 47 | 233 | 2.6 | 5.2 | 0.00 | 0.40 | 0.40 | 99 | 1009.3 |
| 20260509175635 | 48 | 233 | 2.6 | 4.3 | 0.00 | 0.40 | 0.40 | 99 | 1009.2 |
| 20260509175132 | 48 | 242 | 3.5 | 7.8 | 0.05 | 0.40 | 0.40 | 99 | 1009.0 |
| 20260509174628 | 48 | 214 | 3.5 | 7.8 | 0.00 | 0.39 | 0.39 | 99 | 1009.0 |
| 20260509174123 | 48 | 242 | 3.5 | 6.1 | 0.00 | 0.39 | 0.39 | 99 | 1009.3 |
| 20260509173619 | 48 | 224 | 5.2 | 7.0 | 0.00 | 0.39 | 0.39 | 99 | 1009.0 |
| 20260509173115 | 48 | 248 | 1.7 | 4.3 | 0.00 | 0.39 | 0.39 | 99 | 1009.1 |
| 20260509172612 | 48 | 60 | 4.3 | 5.2 | 0.00 | 0.39 | 0.39 | 99 | 1009.0 |
| 20260509172108 | 48 | 234 | 4.3 | 6.1 | 0.00 | 0.39 | 0.39 | 99 | 1009.1 |
| 20260509171604 | 48 | 244 | 2.6 | 5.2 | 0.00 | 0.39 | 0.39 | 99 | 1009.1 |
| 20260509171100 | 47 | 243 | 4.3 | 7.0 | 0.00 | 0.39 | 0.39 | 99 | 1009.4 |
| 20260509170557 | 47 | 221 | 2.6 | 4.3 | 0.00 | 0.39 | 0.39 | 99 | 1009.4 |
| 20260509170053 | 48 | 253 | 1.7 | 4.3 | 0.00 | 0.39 | 0.39 | 99 | 1009.4 |
| 20260509165551 | 48 | 252 | 2.6 | 5.2 | 0.00 | 0.39 | 0.39 | 99 | 1009.4 |
| 20260509165047 | 48 | 225 | 2.6 | 5.2 | 0.00 | 0.39 | 0.39 | 99 | 1009.4 |
| 20260509164543 | 48 | 226 | 1.7 | 5.2 | 0.07 | 0.39 | 0.39 | 99 | 1009.4 |
| 20260509164044 | 48 | 254 | 1.7 | 4.3 | 0.07 | 0.39 | 0.39 | 99 | 1009.5 |
| 20260509163543 | 47 | 243 | 0.9 | 2.6 | 0.00 | 0.38 | 0.38 | 99 | 1009.6 |
| 20260509163037 | 47 | 227 | 0.0 | 2.6 | 0.00 | 0.38 | 0.38 | 99 | 1009.6 |
| 20260509162535 | 47 | 226 | 1.7 | 2.6 | 0.00 | 0.38 | 0.38 | 99 | 1009.7 |
| 20260509162031 | 47 | 237 | 0.9 | 5.2 | 0.00 | 0.38 | 0.38 | 99 | 1009.8 |
| 20260509161527 | 47 | 235 | 2.6 | 4.3 | 0.05 | 0.38 | 0.38 | 99 | 1009.8 |
| 20260509161022 | 47 | 237 | 2.6 | 4.3 | 0.12 | 0.38 | 0.38 | 99 | 1009.9 |
| 20260509160518 | 47 | 247 | 1.7 | 6.1 | 0.07 | 0.37 | 0.37 | 99 | 1010.1 |
| 20260509160014 | 47 | 248 | 0.9 | 2.6 | 0.05 | 0.36 | 0.36 | 99 | 1010.2 |
| 20260509155510 | 47 | 244 | 1.7 | 2.6 | 0.05 | 0.36 | 0.36 | 99 | 1010.2 |
| 20260509155006 | 46 | 244 | 2.6 | 4.3 | 0.07 | 0.35 | 0.35 | 99 | 1010.3 |
| 20260509154503 | 47 | 243 | 2.6 | 4.3 | 0.05 | 0.34 | 0.34 | 99 | 1010.2 |
| 20260509154000 | 47 | 231 | 1.7 | 5.2 | 0.05 | 0.34 | 0.34 | 99 | 1010.8 |
| 20260509153457 | 46 | 214 | 2.6 | 5.2 | 0.07 | 0.33 | 0.33 | 99 | 1010.7 |
| 20260509152954 | 46 | 188 | 2.6 | 5.2 | 0.07 | 0.33 | 0.33 | 99 | 1010.4 |
| 20260509152449 | 46 | 238 | 2.6 | 6.1 | 0.05 | 0.32 | 0.32 | 99 | 1010.7 |
| 20260509151947 | 46 | 243 | 2.6 | 7.0 | 0.05 | 0.32 | 0.32 | 99 | 1010.5 |
| 20260509151443 | 46 | 262 | 3.5 | 4.3 | 0.07 | 0.31 | 0.31 | 99 | 1010.7 |
| 20260509150941 | 46 | 98 | 3.5 | 6.1 | 0.05 | 0.30 | 0.30 | 99 | 1010.7 |
| 20260509150438 | 46 | 94 | 3.5 | 6.1 | 0.05 | 0.30 | 0.30 | 99 | 1010.7 |
| 20260509145937 | 46 | 245 | 0.9 | 5.2 | 0.00 | 0.29 | 0.29 | 99 | 1010.5 |
| 20260509145437 | 46 | 244 | 2.6 | 4.3 | 0.07 | 0.29 | 0.29 | 99 | 1010.4 |
| 20260509144932 | 46 | 280 | 0.9 | 2.6 | 0.07 | 0.29 | 0.29 | 99 | 1010.4 |
| 20260509144430 | 46 | 255 | 1.7 | 6.1 | 0.07 | 0.28 | 0.28 | 99 | 1010.5 |
| 20260509143927 | 46 | 249 | 3.5 | 4.3 | 0.07 | 0.28 | 0.28 | 99 | 1010.5 |
| 20260509143424 | 46 | 233 | 1.7 | 2.6 | 0.05 | 0.27 | 0.27 | 99 | 1010.5 |
| 20260509142920 | 46 | 253 | 1.7 | 2.6 | 0.05 | 0.27 | 0.27 | 99 | 1010.8 |
| 20260509142417 | 46 | 210 | 1.7 | 2.6 | 0.07 | 0.26 | 0.26 | 99 | 1010.8 |
| 20260509141913 | 46 | 235 | 0.9 | 2.6 | 0.07 | 0.26 | 0.26 | 99 | 1010.4 |
| 20260509141410 | 46 | 287 | 0.0 | 2.6 | 0.05 | 0.25 | 0.25 | 99 | 1010.4 |
| 20260509140906 | 46 | 242 | 0.0 | 1.7 | 0.05 | 0.25 | 0.25 | 99 | 1010.4 |
| 20260509140403 | 45 | 234 | 0.9 | 1.7 | 0.07 | 0.24 | 0.24 | 99 | 1010.7 |
| 20260509135901 | 45 | 250 | 1.7 | 4.3 | 0.07 | 0.24 | 0.24 | 99 | 1010.9 |
| 20260509135358 | 45 | 250 | 0.9 | 4.3 | 0.00 | 0.23 | 0.23 | 99 | 1010.7 |
| 20260509134855 | 45 | 249 | 0.9 | 1.7 | 0.05 | 0.23 | 0.23 | 99 | 1010.7 |
| 20260509134353 | 45 | 243 | 1.7 | 1.7 | 0.05 | 0.23 | 0.23 | 99 | 1010.5 |
| 20260509133849 | 45 | 248 | 1.7 | 2.6 | 0.07 | 0.22 | 0.22 | 99 | 1010.7 |
| 20260509133346 | 45 | 244 | 1.7 | 2.6 | 0.07 | 0.22 | 0.22 | 99 | 1010.8 |
| 20260509132845 | 45 | 245 | 0.0 | 4.3 | 0.05 | 0.21 | 0.21 | 99 | 1010.7 |
| 20260509132343 | 45 | 202 | 2.6 | 4.3 | 0.07 | 0.20 | 0.20 | 99 | 1010.8 |
| 20260509131839 | 45 | 235 | 0.9 | 2.6 | 0.07 | 0.20 | 0.20 | 99 | 1010.7 |
| 20260509131336 | 45 | 232 | 1.7 | 2.6 | 0.05 | 0.19 | 0.19 | 99 | 1010.8 |
| 20260509130833 | 45 | 242 | 0.9 | 1.7 | 0.07 | 0.18 | 0.18 | 99 | 1011.0 |
| 20260509130328 | 45 | 242 | 0.9 | 2.6 | 0.12 | 0.18 | 0.18 | 99 | 1010.9 |
| 20260509125825 | 44 | 252 | 0.9 | 1.7 | 0.05 | 0.17 | 0.17 | 99 | 1010.8 |
| 20260509125322 | 44 | 300 | 0.9 | 2.6 | 0.07 | 0.16 | 0.16 | 99 | 1010.5 |
| 20260509124818 | 44 | 257 | 0.9 | 2.6 | 0.07 | 0.16 | 0.16 | 99 | 1010.5 |
| 20260509124315 | 44 | 237 | 0.0 | 2.6 | 0.07 | 0.15 | 0.15 | 99 | 1010.5 |
| 20260509123813 | 44 | 241 | 0.9 | 5.2 | 0.00 | 0.14 | 0.14 | 99 | 1010.8 |
| 20260509123310 | 44 | 186 | 1.7 | 5.2 | 0.05 | 0.14 | 0.14 | 99 | 1010.5 |
| 20260509122806 | 44 | 246 | 0.9 | 5.2 | 0.05 | 0.14 | 0.14 | 99 | 1010.8 |
| 20260509122306 | 44 | 240 | 1.7 | 1.7 | 0.00 | 0.13 | 0.13 | 99 | 1010.8 |
| 20260509121800 | 44 | 261 | 0.9 | 2.6 | 0.07 | 0.13 | 0.13 | 99 | 1010.8 |
| 20260509121257 | 44 | 231 | 2.6 | 4.3 | 0.07 | 0.13 | 0.13 | 99 | 1011.0 |
| 20260509120755 | 44 | 240 | 0.9 | 4.3 | 0.00 | 0.12 | 0.12 | 99 | 1011.0 |
| 20260509120252 | 44 | 234 | 0.9 | 1.7 | 0.05 | 0.12 | 0.12 | 99 | 1011.0 |
| 20260509115751 | 44 | 239 | 0.9 | 4.3 | 0.05 | 0.12 | 0.12 | 99 | 1011.0 |
| 20260509115247 | 43 | 236 | 0.9 | 2.6 | 0.00 | 0.11 | 0.11 | 99 | 1011.1 |
| 20260509114745 | 43 | 210 | 2.6 | 2.6 | 0.00 | 0.11 | 0.11 | 99 | 1011.0 |
| 20260509114244 | 43 | 260 | 0.0 | 1.7 | 0.07 | 0.11 | 0.11 | 99 | 1010.7 |
| 20260509113742 | 43 | 229 | 0.9 | 1.7 | 0.07 | 0.11 | 0.11 | 99 | 1010.8 |
| 20260509113239 | 43 | 236 | 0.9 | 5.2 | 0.05 | 0.10 | 0.10 | 99 | 1010.9 |
| 20260509112736 | 43 | 237 | 0.9 | 2.6 | 0.05 | 0.10 | 0.10 | 99 | 1011.0 |
| 20260509112233 | 43 | 236 | 0.0 | 2.6 | 0.07 | 0.09 | 0.09 | 99 | 1011.0 |
| 20260509111730 | 43 | 235 | 2.6 | 4.3 | 0.07 | 0.09 | 0.09 | 99 | 1011.1 |
| 20260509111226 | 42 | 237 | 0.9 | 2.6 | 0.00 | 0.08 | 0.08 | 99 | 1010.9 |
| 20260509110724 | 42 | 236 | 0.9 | 1.7 | 0.05 | 0.08 | 0.08 | 99 | 1010.8 |
| 20260509110220 | 42 | 229 | 0.9 | 2.6 | 0.05 | 0.08 | 0.08 | 99 | 1011.0 |
| 20260509105719 | 42 | 235 | 0.0 | 4.3 | 0.00 | 0.07 | 0.07 | 99 | 1010.7 |
| 20260509105216 | 42 | 243 | 1.7 | 1.7 | 0.00 | 0.07 | 0.07 | 99 | 1010.8 |
| 20260509104713 | 42 | 242 | 0.9 | 4.3 | 0.00 | 0.07 | 0.07 | 99 | 1010.5 |
| 20260509104209 | 42 | 242 | 0.9 | 4.3 | 0.00 | 0.07 | 0.07 | 99 | 1010.7 |
| 20260509103708 | 42 | 226 | 1.7 | 5.2 | 0.00 | 0.07 | 0.07 | 99 | 1010.5 |
| 20260509091358 | 40 | 238 | 0.9 | 2.6 | 0.00 | 0.06 | 0.06 | 99 | 1011.2 |
| 20260509090855 | 40 | 238 | 0.9 | 2.6 | 0.00 | 0.06 | 0.06 | 99 | 1011.2 |
| 20260509090352 | 40 | 249 | 0.0 | 1.7 | 0.00 | 0.06 | 0.06 | 99 | 1010.9 |
| 20260509085850 | 40 | 248 | 0.9 | 1.7 | 0.00 | 0.06 | 0.06 | 99 | 1011.0 |
| 20260509085347 | 40 | 247 | 0.9 | 1.7 | 0.00 | 0.06 | 0.06 | 99 | 1010.9 |
| 20260509084843 | 40 | 247 | 0.9 | 1.7 | 0.05 | 0.06 | 0.06 | 99 | 1011.0 |
| 20260509084340 | 41 | 248 | 0.9 | 1.7 | 0.05 | 0.06 | 0.06 | 99 | 1011.1 |
| 20260509083838 | 40 | 248 | 0.9 | 1.7 | 0.00 | 0.05 | 0.05 | 99 | 1010.9 |
| 20260509083334 | 40 | 248 | 0.9 | 1.7 | 0.00 | 0.05 | 0.05 | 99 | 1010.8 |
| 20260509082831 | 40 | 248 | 0.9 | 2.6 | 0.00 | 0.05 | 0.05 | 99 | 1011.1 |
| 20260509082328 | 40 | 248 | 0.9 | 1.7 | 0.07 | 0.05 | 0.05 | 99 | 1011.2 |
| 20260509081826 | 40 | 248 | 0.9 | 2.6 | 0.07 | 0.05 | 0.05 | 99 | 1011.3 |
| 20260509081322 | 40 | 249 | 0.9 | 2.6 | 0.00 | 0.04 | 0.04 | 99 | 1011.3 |
| 20260509080820 | 40 | 248 | 0.0 | 1.7 | 0.05 | 0.04 | 0.04 | 99 | 1011.3 |
| 20260509080318 | 40 | 243 | 2.6 | 4.3 | 0.12 | 0.04 | 0.04 | 98 | 1011.4 |
| 20260509075816 | 39 | 247 | 0.9 | 1.7 | 0.07 | 0.03 | 0.03 | 98 | 1011.5 |
| 20260509075313 | 39 | 248 | 0.9 | 2.6 | 0.00 | 0.02 | 0.02 | 97 | 1011.4 |
| 20260509074810 | 39 | 248 | 0.9 | 1.7 | 0.07 | 0.02 | 0.02 | 96 | 1011.4 |
| 20260509074308 | 39 | 225 | 0.9 | 1.7 | 0.00 | 0.01 | 0.01 | 96 | 1011.4 |
| 20260509073803 | 39 | 248 | 0.9 | 1.7 | 0.00 | 0.01 | 0.01 | 95 | 1011.2 |
| 20260509073300 | 39 | 210 | 1.7 | 1.7 | 0.05 | 0.01 | 0.01 | 94 | 1010.9 |
| 20260509072756 | 39 | 253 | 0.9 | 1.7 | 0.05 | 0.01 | 0.01 | 93 | 1011.2 |
| 20260509072253 | 40 | 253 | 0.9 | 1.7 | 0.00 | 0.00 | 0.00 | 92 | 1011.0 |
| 20260509071750 | 40 | 253 | 1.7 | 1.7 | 0.00 | 0.00 | 0.00 | 92 | 1011.3 |
| 20260509071247 | 40 | 253 | 0.0 | 0.9 | 0.00 | 0.00 | 0.00 | 91 | 1011.1 |
| 20260509070744 | 40 | 253 | 0.0 | 1.7 | 0.00 | 0.00 | 0.00 | 90 | 1011.0 |
| 20260509070240 | 40 | 253 | 0.9 | 0.9 | 0.00 | 0.00 | 0.00 | 87 | 1011.2 |
| 20260509065737 | 40 | 253 | 0.0 | 1.7 | 0.00 | 0.00 | 0.00 | 86 | 1011.2 |
| 20260509065233 | 40 | 253 | 0.0 | 1.7 | 0.00 | 0.00 | 0.00 | 86 | 1011.4 |
| 20260509064730 | 40 | 253 | 0.0 | 0.9 | 0.00 | 0.00 | 0.00 | 84 | 1011.3 |
| 20260509064227 | 40 | 253 | 0.9 | 0.9 | 0.00 | 0.00 | 0.00 | 83 | 1011.2 |
| 20260509063725 | 40 | 253 | 0.9 | 1.7 | 0.00 | 0.00 | 0.00 | 83 | 1011.3 |
| 20260509063221 | 40 | 253 | 0.9 | 1.7 | 0.00 | 0.00 | 0.00 | 82 | 1011.3 |
| 20260509062718 | 40 | 253 | 0.0 | 0.9 | 0.00 | 0.00 | 0.00 | 81 | 1011.4 |
| 20260509062215 | 40 | 254 | 0.9 | 1.7 | 0.00 | 0.00 | 0.00 | 80 | 1011.4 |
| 20260509061712 | 40 | 254 | 0.0 | 0.9 | 0.00 | 0.00 | 0.00 | 80 | 1011.2 |
| 20260509061210 | 39 | 254 | 0.0 | 1.7 | 0.00 | 0.00 | 0.00 | 80 | 1011.4 |
| 20260509060707 | 39 | 254 | 0.9 | 1.7 | 0.00 | 0.00 | 0.00 | 82 | 1011.6 |
| 20260509060203 | 39 | 323 | 0.0 | 0.9 | 0.00 | 0.00 | 0.00 | 81 | 1011.5 |
| 20260509055659 | 39 | 323 | 0.0 | 0.9 | 0.00 | 0.00 | 0.00 | 81 | 1011.4 |
| 20260509055155 | 39 | 323 | 0.0 | 0.9 | 0.00 | 0.00 | 0.00 | 81 | 1011.4 |
| 20260509054652 | 39 | 323 | 0.0 | 0.0 | 0.00 | 0.00 | 0.00 | 82 | 1011.7 |
| 20260509054149 | 39 | 323 | 0.0 | 0.9 | 0.00 | 0.00 | 0.00 | 81 | 1011.7 |
| 20260509053647 | 39 | 323 | 0.0 | 1.7 | 0.00 | 0.00 | 0.00 | 80 | 1011.7 |
| 20260509053144 | 39 | 323 | 0.0 | 0.9 | 0.00 | 0.00 | 0.00 | 79 | 1011.6 |
| 20260509052642 | 39 | 323 | 0.0 | 0.9 | 0.00 | 0.00 | 0.00 | 79 | 1011.7 |
| 20260509052139 | 39 | 323 | 0.0 | 1.7 | 0.00 | 0.00 | 0.00 | 79 | 1011.9 |
| 20260509051637 | 39 | 323 | 0.9 | 0.9 | 0.00 | 0.00 | 0.00 | 79 | 1012.1 |
| 20260509051134 | 39 | 323 | 0.0 | 0.9 | 0.00 | 0.00 | 0.00 | 79 | 1012.1 |
| 20260509050631 | 39 | 323 | 0.0 | 1.7 | 0.00 | 0.00 | 0.00 | 79 | 1011.9 |
| 20260509050127 | 38 | 323 | 0.0 | 0.9 | 0.00 | 0.00 | 0.00 | 79 | 1011.9 |
| 20260509045625 | 38 | 323 | 0.9 | 1.7 | 0.00 | 0.00 | 0.00 | 79 | 1011.9 |
| 20260509045122 | 38 | 323 | 0.0 | 0.9 | 0.00 | 0.00 | 0.00 | 79 | 1011.8 |
| 20260509044619 | 38 | 323 | 0.0 | 0.0 | 0.00 | 0.00 | 0.00 | 79 | 1011.9 |
| 20260509044116 | 38 | 323 | 0.0 | 0.9 | 0.00 | 0.00 | 0.00 | 78 | 1011.9 |